Manokin, Maryland
Current Conditions -  °F | °C
As of 9:54 PM on Friday 21 Nov 2014 (Local Time) from KWAL Reporting Station
Clear Clear  
Wind Chill: 25°   Ceiling: Unl
Heat Index: 25°   Visibility: 10mi
Dew Point: 13°   Wind: 0mph
Humidity: 60%   Direction: NA
Pressure: 30.57"   Gusts: NA
Location:  38.11°N, 75.76°W
Report Text: KWAL 220254Z AUTO 00000KT 10SM CLR M04/M11 A3057 RMK AO2 SLP350 T10391106 53007
Loading
Personal Weather Stations






























Interactive Weather Map New forecast layout! Learn more

10-Day Weather Forecast

Advertisements
Track Severe Weather on mobile